sensor_id;sensor_type;location;lat;lon;timestamp;P1;durP1;ratioP1;P2;durP2;ratioP2
4468;SDS011;2247;42.666;23.292;2022-12-22T00:02:09;40.53;;;21.00;;
4468;SDS011;2247;42.666;23.292;2022-12-22T00:04:58;55.13;;;23.20;;
4468;SDS011;2247;42.666;23.292;2022-12-22T00:07:43;38.87;;;20.57;;
4468;SDS011;2247;42.666;23.292;2022-12-22T00:10:29;42.77;;;20.60;;
4468;SDS011;2247;42.666;23.292;2022-12-22T00:13:14;42.60;;;18.80;;
4468;SDS011;2247;42.666;23.292;2022-12-22T00:15:59;41.93;;;19.00;;
4468;SDS011;2247;42.666;23.292;2022-12-22T00:18:43;43.23;;;21.20;;
4468;SDS011;2247;42.666;23.292;2022-12-22T00:21:28;52.83;;;23.77;;
4468;SDS011;2247;42.666;23.292;2022-12-22T00:24:14;47.10;;;22.87;;
4468;SDS011;2247;42.666;23.292;2022-12-22T00:27:00;44.63;;;22.40;;
4468;SDS011;2247;42.666;23.292;2022-12-22T00:29:44;45.10;;;22.07;;
4468;SDS011;2247;42.666;23.292;2022-12-22T00:32:30;50.87;;;23.50;;
4468;SDS011;2247;42.666;23.292;2022-12-22T00:35:19;58.30;;;28.70;;
4468;SDS011;2247;42.666;23.292;2022-12-22T00:38:08;63.23;;;28.60;;
4468;SDS011;2247;42.666;23.292;2022-12-22T00:40:57;54.03;;;24.50;;
4468;SDS011;2247;42.666;23.292;2022-12-22T00:43:43;52.93;;;25.20;;
4468;SDS011;2247;42.666;23.292;2022-12-22T00:46:27;51.90;;;22.33;;
4468;SDS011;2247;42.666;23.292;2022-12-22T00:49:11;45.10;;;21.37;;
4468;SDS011;2247;42.666;23.292;2022-12-22T00:51:56;49.70;;;23.40;;
4468;SDS011;2247;42.666;23.292;2022-12-22T00:54:42;47.63;;;22.77;;
4468;SDS011;2247;42.666;23.292;2022-12-22T00:57:26;70.23;;;30.63;;
4468;SDS011;2247;42.666;23.292;2022-12-22T01:00:15;78.83;;;40.87;;
4468;SDS011;2247;42.666;23.292;2022-12-22T01:03:00;89.70;;;41.43;;
4468;SDS011;2247;42.666;23.292;2022-12-22T01:05:45;91.63;;;42.20;;
4468;SDS011;2247;42.666;23.292;2022-12-22T01:08:30;91.37;;;41.37;;
4468;SDS011;2247;42.666;23.292;2022-12-22T01:11:15;86.63;;;41.37;;
4468;SDS011;2247;42.666;23.292;2022-12-22T01:13:59;72.23;;;36.03;;
4468;SDS011;2247;42.666;23.292;2022-12-22T01:16:44;83.57;;;35.90;;
4468;SDS011;2247;42.666;23.292;2022-12-22T01:19:29;70.73;;;34.17;;
4468;SDS011;2247;42.666;23.292;2022-12-22T01:22:14;72.93;;;31.57;;
4468;SDS011;2247;42.666;23.292;2022-12-22T01:25:18;83.67;;;38.03;;
4468;SDS011;2247;42.666;23.292;2022-12-22T01:28:02;68.50;;;32.40;;
4468;SDS011;2247;42.666;23.292;2022-12-22T01:30:47;67.03;;;30.00;;
4468;SDS011;2247;42.666;23.292;2022-12-22T01:33:33;67.13;;;30.77;;
4468;SDS011;2247;42.666;23.292;2022-12-22T01:36:17;70.50;;;36.80;;
4468;SDS011;2247;42.666;23.292;2022-12-22T01:39:02;77.07;;;35.47;;
4468;SDS011;2247;42.666;23.292;2022-12-22T01:41:47;76.13;;;37.27;;
4468;SDS011;2247;42.666;23.292;2022-12-22T01:44:32;64.53;;;29.57;;
4468;SDS011;2247;42.666;23.292;2022-12-22T01:47:33;63.57;;;32.67;;
4468;SDS011;2247;42.666;23.292;2022-12-22T01:50:21;61.53;;;32.90;;
4468;SDS011;2247;42.666;23.292;2022-12-22T01:53:11;65.00;;;31.60;;
4468;SDS011;2247;42.666;23.292;2022-12-22T01:55:59;66.00;;;31.73;;
4468;SDS011;2247;42.666;23.292;2022-12-22T01:58:45;63.50;;;30.87;;
4468;SDS011;2247;42.666;23.292;2022-12-22T02:01:32;57.23;;;27.33;;
4468;SDS011;2247;42.666;23.292;2022-12-22T02:04:17;57.03;;;27.13;;
4468;SDS011;2247;42.666;23.292;2022-12-22T02:07:09;67.20;;;31.20;;
4468;SDS011;2247;42.666;23.292;2022-12-22T02:10:10;60.73;;;28.70;;
4468;SDS011;2247;42.666;23.292;2022-12-22T02:13:09;53.13;;;25.63;;
4468;SDS011;2247;42.666;23.292;2022-12-22T02:16:04;53.60;;;27.00;;
4468;SDS011;2247;42.666;23.292;2022-12-22T02:18:55;64.07;;;30.23;;
4468;SDS011;2247;42.666;23.292;2022-12-22T02:21:48;65.00;;;27.27;;
4468;SDS011;2247;42.666;23.292;2022-12-22T02:24:45;53.37;;;27.80;;
4468;SDS011;2247;42.666;23.292;2022-12-22T02:27:35;59.43;;;28.97;;
4468;SDS011;2247;42.666;23.292;2022-12-22T02:30:23;64.50;;;29.10;;
4468;SDS011;2247;42.666;23.292;2022-12-22T02:33:09;59.30;;;26.47;;
4468;SDS011;2247;42.666;23.292;2022-12-22T02:35:55;67.10;;;30.27;;
4468;SDS011;2247;42.666;23.292;2022-12-22T02:38:46;63.03;;;31.30;;
4468;SDS011;2247;42.666;23.292;2022-12-22T02:41:40;70.77;;;33.13;;
4468;SDS011;2247;42.666;23.292;2022-12-22T02:44:35;73.20;;;34.90;;
4468;SDS011;2247;42.666;23.292;2022-12-22T02:47:28;72.70;;;35.70;;
4468;SDS011;2247;42.666;23.292;2022-12-22T02:50:19;79.93;;;35.83;;
4468;SDS011;2247;42.666;23.292;2022-12-22T02:53:05;86.07;;;41.50;;
4468;SDS011;2247;42.666;23.292;2022-12-22T02:55:56;93.40;;;41.77;;
4468;SDS011;2247;42.666;23.292;2022-12-22T02:58:43;88.93;;;42.63;;
4468;SDS011;2247;42.666;23.292;2022-12-22T03:01:29;85.37;;;40.20;;
4468;SDS011;2247;42.666;23.292;2022-12-22T03:04:15;90.60;;;43.60;;
4468;SDS011;2247;42.666;23.292;2022-12-22T03:06:59;87.53;;;39.83;;
4468;SDS011;2247;42.666;23.292;2022-12-22T03:09:43;96.67;;;45.30;;
4468;SDS011;2247;42.666;23.292;2022-12-22T03:12:27;105.07;;;48.40;;
4468;SDS011;2247;42.666;23.292;2022-12-22T03:15:12;78.73;;;39.07;;
4468;SDS011;2247;42.666;23.292;2022-12-22T03:18:01;71.80;;;32.57;;
4468;SDS011;2247;42.666;23.292;2022-12-22T03:20:46;76.20;;;30.60;;
4468;SDS011;2247;42.666;23.292;2022-12-22T03:23:30;63.90;;;29.53;;
4468;SDS011;2247;42.666;23.292;2022-12-22T03:26:15;53.67;;;26.00;;
4468;SDS011;2247;42.666;23.292;2022-12-22T03:28:42;49.03;;;25.93;;
4468;SDS011;2247;42.666;23.292;2022-12-22T03:31:09;44.87;;;23.60;;
4468;SDS011;2247;42.666;23.292;2022-12-22T03:33:38;52.13;;;25.10;;
4468;SDS011;2247;42.666;23.292;2022-12-22T03:36:06;47.47;;;25.47;;
4468;SDS011;2247;42.666;23.292;2022-12-22T03:38:34;49.67;;;24.90;;
4468;SDS011;2247;42.666;23.292;2022-12-22T03:41:01;48.60;;;24.63;;
4468;SDS011;2247;42.666;23.292;2022-12-22T03:43:29;51.77;;;25.57;;
4468;SDS011;2247;42.666;23.292;2022-12-22T03:46:18;63.23;;;24.53;;
4468;SDS011;2247;42.666;23.292;2022-12-22T03:49:00;52.90;;;24.17;;
4468;SDS011;2247;42.666;23.292;2022-12-22T03:51:37;52.97;;;23.77;;
4468;SDS011;2247;42.666;23.292;2022-12-22T03:54:07;47.60;;;24.33;;
4468;SDS011;2247;42.666;23.292;2022-12-22T03:56:35;50.80;;;24.90;;
4468;SDS011;2247;42.666;23.292;2022-12-22T03:59:02;54.23;;;26.20;;
4468;SDS011;2247;42.666;23.292;2022-12-22T04:01:30;53.33;;;27.40;;
4468;SDS011;2247;42.666;23.292;2022-12-22T04:04:00;55.37;;;28.10;;
4468;SDS011;2247;42.666;23.292;2022-12-22T04:06:27;60.30;;;29.93;;
4468;SDS011;2247;42.666;23.292;2022-12-22T04:08:55;62.83;;;29.40;;
4468;SDS011;2247;42.666;23.292;2022-12-22T04:11:22;57.53;;;29.03;;
4468;SDS011;2247;42.666;23.292;2022-12-22T04:14:06;61.67;;;29.57;;
4468;SDS011;2247;42.666;23.292;2022-12-22T04:16:34;60.03;;;29.40;;
4468;SDS011;2247;42.666;23.292;2022-12-22T04:19:03;52.70;;;27.40;;
4468;SDS011;2247;42.666;23.292;2022-12-22T04:21:32;53.53;;;24.70;;
4468;SDS011;2247;42.666;23.292;2022-12-22T04:23:59;52.73;;;25.40;;
4468;SDS011;2247;42.666;23.292;2022-12-22T04:26:25;56.40;;;26.27;;
4468;SDS011;2247;42.666;23.292;2022-12-22T04:28:53;58.10;;;25.60;;
4468;SDS011;2247;42.666;23.292;2022-12-22T04:31:21;54.97;;;26.17;;
4468;SDS011;2247;42.666;23.292;2022-12-22T04:33:48;44.97;;;24.30;;
4468;SDS011;2247;42.666;23.292;2022-12-22T04:36:17;48.07;;;24.30;;
4468;SDS011;2247;42.666;23.292;2022-12-22T04:38:44;56.53;;;24.57;;
4468;SDS011;2247;42.666;23.292;2022-12-22T04:41:11;52.67;;;25.87;;
4468;SDS011;2247;42.666;23.292;2022-12-22T04:43:41;49.50;;;26.10;;
4468;SDS011;2247;42.666;23.292;2022-12-22T04:46:09;51.60;;;25.67;;
4468;SDS011;2247;42.666;23.292;2022-12-22T04:48:36;60.10;;;28.37;;
4468;SDS011;2247;42.666;23.292;2022-12-22T04:51:03;54.77;;;25.93;;
4468;SDS011;2247;42.666;23.292;2022-12-22T04:53:33;54.03;;;27.90;;
4468;SDS011;2247;42.666;23.292;2022-12-22T04:56:00;58.57;;;28.87;;
4468;SDS011;2247;42.666;23.292;2022-12-22T04:58:29;56.70;;;29.60;;
4468;SDS011;2247;42.666;23.292;2022-12-22T05:00:57;75.93;;;29.37;;
4468;SDS011;2247;42.666;23.292;2022-12-22T05:03:34;51.13;;;25.97;;
4468;SDS011;2247;42.666;23.292;2022-12-22T05:06:01;48.00;;;25.20;;
4468;SDS011;2247;42.666;23.292;2022-12-22T05:08:29;57.93;;;26.03;;
4468;SDS011;2247;42.666;23.292;2022-12-22T05:10:57;67.10;;;30.90;;
4468;SDS011;2247;42.666;23.292;2022-12-22T05:13:25;70.20;;;33.13;;
4468;SDS011;2247;42.666;23.292;2022-12-22T05:15:52;63.00;;;29.50;;
4468;SDS011;2247;42.666;23.292;2022-12-22T05:18:19;76.70;;;37.63;;
4468;SDS011;2247;42.666;23.292;2022-12-22T05:20:46;101.73;;;42.77;;
4468;SDS011;2247;42.666;23.292;2022-12-22T05:23:13;72.87;;;38.30;;
4468;SDS011;2247;42.666;23.292;2022-12-22T05:25:41;88.47;;;41.97;;
4468;SDS011;2247;42.666;23.292;2022-12-22T05:28:09;87.47;;;39.00;;
4468;SDS011;2247;42.666;23.292;2022-12-22T05:30:36;86.70;;;41.33;;
4468;SDS011;2247;42.666;23.292;2022-12-22T05:33:05;97.73;;;44.93;;
4468;SDS011;2247;42.666;23.292;2022-12-22T05:35:33;83.43;;;39.17;;
4468;SDS011;2247;42.666;23.292;2022-12-22T05:38:00;65.60;;;36.13;;
4468;SDS011;2247;42.666;23.292;2022-12-22T05:40:27;78.03;;;40.00;;
4468;SDS011;2247;42.666;23.292;2022-12-22T05:42:54;98.37;;;45.70;;
4468;SDS011;2247;42.666;23.292;2022-12-22T05:45:23;94.90;;;44.80;;
4468;SDS011;2247;42.666;23.292;2022-12-22T05:47:50;121.60;;;50.13;;
4468;SDS011;2247;42.666;23.292;2022-12-22T05:50:19;99.37;;;46.33;;
4468;SDS011;2247;42.666;23.292;2022-12-22T05:52:48;104.73;;;48.30;;
4468;SDS011;2247;42.666;23.292;2022-12-22T05:55:15;90.27;;;42.20;;
4468;SDS011;2247;42.666;23.292;2022-12-22T05:57:43;87.13;;;41.10;;
4468;SDS011;2247;42.666;23.292;2022-12-22T06:00:12;95.40;;;40.93;;
4468;SDS011;2247;42.666;23.292;2022-12-22T06:02:42;85.13;;;39.13;;
4468;SDS011;2247;42.666;23.292;2022-12-22T06:05:10;99.30;;;46.80;;
4468;SDS011;2247;42.666;23.292;2022-12-22T06:07:39;95.03;;;45.57;;
4468;SDS011;2247;42.666;23.292;2022-12-22T06:10:11;93.87;;;46.20;;
4468;SDS011;2247;42.666;23.292;2022-12-22T06:12:41;106.87;;;49.83;;
4468;SDS011;2247;42.666;23.292;2022-12-22T06:15:10;92.30;;;44.87;;
4468;SDS011;2247;42.666;23.292;2022-12-22T06:17:39;120.23;;;51.47;;
4468;SDS011;2247;42.666;23.292;2022-12-22T06:20:08;99.73;;;47.47;;
4468;SDS011;2247;42.666;23.292;2022-12-22T06:22:36;120.27;;;53.17;;
4468;SDS011;2247;42.666;23.292;2022-12-22T06:25:03;102.43;;;46.33;;
4468;SDS011;2247;42.666;23.292;2022-12-22T06:27:31;108.33;;;46.57;;
4468;SDS011;2247;42.666;23.292;2022-12-22T06:29:59;80.33;;;40.03;;
4468;SDS011;2247;42.666;23.292;2022-12-22T06:32:26;91.60;;;40.93;;
4468;SDS011;2247;42.666;23.292;2022-12-22T06:34:55;91.77;;;43.17;;
4468;SDS011;2247;42.666;23.292;2022-12-22T06:37:22;98.00;;;48.37;;
4468;SDS011;2247;42.666;23.292;2022-12-22T06:39:49;92.20;;;46.20;;
4468;SDS011;2247;42.666;23.292;2022-12-22T06:42:16;98.37;;;47.63;;
4468;SDS011;2247;42.666;23.292;2022-12-22T06:45:00;100.70;;;47.70;;
4468;SDS011;2247;42.666;23.292;2022-12-22T06:47:27;94.17;;;46.80;;
4468;SDS011;2247;42.666;23.292;2022-12-22T06:49:55;97.53;;;48.10;;
4468;SDS011;2247;42.666;23.292;2022-12-22T06:52:23;98.37;;;47.57;;
4468;SDS011;2247;42.666;23.292;2022-12-22T06:54:50;101.40;;;46.80;;
4468;SDS011;2247;42.666;23.292;2022-12-22T06:57:18;97.20;;;46.23;;
4468;SDS011;2247;42.666;23.292;2022-12-22T06:59:46;142.77;;;69.17;;
4468;SDS011;2247;42.666;23.292;2022-12-22T07:02:14;107.73;;;52.20;;
4468;SDS011;2247;42.666;23.292;2022-12-22T07:04:41;97.07;;;48.40;;
4468;SDS011;2247;42.666;23.292;2022-12-22T07:07:10;102.17;;;50.93;;
4468;SDS011;2247;42.666;23.292;2022-12-22T07:09:38;102.23;;;50.70;;
4468;SDS011;2247;42.666;23.292;2022-12-22T07:12:05;106.07;;;51.17;;
4468;SDS011;2247;42.666;23.292;2022-12-22T07:14:32;107.10;;;53.50;;
4468;SDS011;2247;42.666;23.292;2022-12-22T07:16:59;108.23;;;53.57;;
4468;SDS011;2247;42.666;23.292;2022-12-22T07:19:26;107.80;;;52.63;;
4468;SDS011;2247;42.666;23.292;2022-12-22T07:21:53;96.10;;;46.00;;
4468;SDS011;2247;42.666;23.292;2022-12-22T07:24:22;99.43;;;50.13;;
4468;SDS011;2247;42.666;23.292;2022-12-22T07:26:51;103.57;;;50.87;;
4468;SDS011;2247;42.666;23.292;2022-12-22T07:29:18;110.43;;;49.47;;
4468;SDS011;2247;42.666;23.292;2022-12-22T07:31:46;115.20;;;49.93;;
4468;SDS011;2247;42.666;23.292;2022-12-22T07:34:13;107.70;;;51.10;;
4468;SDS011;2247;42.666;23.292;2022-12-22T07:36:41;112.43;;;52.30;;
4468;SDS011;2247;42.666;23.292;2022-12-22T07:39:11;107.50;;;52.40;;
4468;SDS011;2247;42.666;23.292;2022-12-22T07:41:40;108.57;;;52.73;;
4468;SDS011;2247;42.666;23.292;2022-12-22T07:44:25;104.47;;;55.10;;
4468;SDS011;2247;42.666;23.292;2022-12-22T07:46:52;105.73;;;50.77;;
4468;SDS011;2247;42.666;23.292;2022-12-22T07:49:19;110.77;;;54.73;;
4468;SDS011;2247;42.666;23.292;2022-12-22T07:52:03;106.80;;;50.67;;
4468;SDS011;2247;42.666;23.292;2022-12-22T07:54:30;111.33;;;56.00;;
4468;SDS011;2247;42.666;23.292;2022-12-22T07:57:02;118.83;;;56.30;;
4468;SDS011;2247;42.666;23.292;2022-12-22T07:59:29;114.70;;;56.07;;
4468;SDS011;2247;42.666;23.292;2022-12-22T08:01:58;122.73;;;59.43;;
4468;SDS011;2247;42.666;23.292;2022-12-22T08:04:25;106.03;;;54.87;;
4468;SDS011;2247;42.666;23.292;2022-12-22T08:06:52;118.43;;;57.00;;
4468;SDS011;2247;42.666;23.292;2022-12-22T08:09:22;112.50;;;58.10;;
4468;SDS011;2247;42.666;23.292;2022-12-22T08:11:50;113.10;;;55.73;;
4468;SDS011;2247;42.666;23.292;2022-12-22T08:14:18;106.53;;;55.80;;
4468;SDS011;2247;42.666;23.292;2022-12-22T08:16:45;106.93;;;55.97;;
4468;SDS011;2247;42.666;23.292;2022-12-22T08:19:12;118.30;;;57.30;;
4468;SDS011;2247;42.666;23.292;2022-12-22T08:21:40;118.20;;;59.90;;
4468;SDS011;2247;42.666;23.292;2022-12-22T08:24:07;116.07;;;59.07;;
4468;SDS011;2247;42.666;23.292;2022-12-22T08:26:36;125.80;;;57.33;;
4468;SDS011;2247;42.666;23.292;2022-12-22T08:29:08;114.17;;;57.63;;
4468;SDS011;2247;42.666;23.292;2022-12-22T08:31:41;117.33;;;60.90;;
4468;SDS011;2247;42.666;23.292;2022-12-22T08:34:11;106.50;;;57.17;;
4468;SDS011;2247;42.666;23.292;2022-12-22T08:36:41;111.33;;;58.23;;
4468;SDS011;2247;42.666;23.292;2022-12-22T08:42:01;115.93;;;57.40;;
4468;SDS011;2247;42.666;23.292;2022-12-22T08:44:30;115.40;;;59.50;;
4468;SDS011;2247;42.666;23.292;2022-12-22T08:47:02;112.03;;;56.07;;
4468;SDS011;2247;42.666;23.292;2022-12-22T08:49:30;112.87;;;56.33;;
4468;SDS011;2247;42.666;23.292;2022-12-22T08:51:57;112.07;;;52.83;;
4468;SDS011;2247;42.666;23.292;2022-12-22T08:54:24;111.83;;;56.97;;
4468;SDS011;2247;42.666;23.292;2022-12-22T09:00:13;100.13;;;51.93;;
4468;SDS011;2247;42.666;23.292;2022-12-22T09:02:42;96.73;;;51.30;;
4468;SDS011;2247;42.666;23.292;2022-12-22T09:05:09;97.47;;;50.97;;
4468;SDS011;2247;42.666;23.292;2022-12-22T09:07:38;93.77;;;47.40;;
4468;SDS011;2247;42.666;23.292;2022-12-22T09:10:07;87.33;;;47.40;;
4468;SDS011;2247;42.666;23.292;2022-12-22T09:12:38;95.27;;;46.30;;
4468;SDS011;2247;42.666;23.292;2022-12-22T09:15:06;92.57;;;47.50;;
4468;SDS011;2247;42.666;23.292;2022-12-22T09:17:34;92.00;;;45.87;;
4468;SDS011;2247;42.666;23.292;2022-12-22T09:20:03;92.50;;;45.17;;
4468;SDS011;2247;42.666;23.292;2022-12-22T09:22:34;87.20;;;45.10;;
4468;SDS011;2247;42.666;23.292;2022-12-22T09:25:01;87.77;;;45.00;;
4468;SDS011;2247;42.666;23.292;2022-12-22T09:27:28;89.53;;;46.40;;
4468;SDS011;2247;42.666;23.292;2022-12-22T09:29:55;92.60;;;47.10;;
4468;SDS011;2247;42.666;23.292;2022-12-22T09:32:23;91.03;;;47.20;;
4468;SDS011;2247;42.666;23.292;2022-12-22T09:34:50;94.90;;;50.33;;
4468;SDS011;2247;42.666;23.292;2022-12-22T09:37:19;92.10;;;47.53;;
4468;SDS011;2247;42.666;23.292;2022-12-22T09:39:46;100.03;;;49.90;;
4468;SDS011;2247;42.666;23.292;2022-12-22T09:42:14;91.67;;;48.20;;
4468;SDS011;2247;42.666;23.292;2022-12-22T09:44:45;83.87;;;45.00;;
4468;SDS011;2247;42.666;23.292;2022-12-22T09:47:17;100.13;;;48.30;;
4468;SDS011;2247;42.666;23.292;2022-12-22T09:49:51;86.53;;;47.83;;
4468;SDS011;2247;42.666;23.292;2022-12-22T09:52:23;92.50;;;48.70;;
4468;SDS011;2247;42.666;23.292;2022-12-22T09:55:10;90.30;;;46.53;;
4468;SDS011;2247;42.666;23.292;2022-12-22T09:57:45;97.67;;;47.03;;
4468;SDS011;2247;42.666;23.292;2022-12-22T10:00:14;86.07;;;47.67;;
4468;SDS011;2247;42.666;23.292;2022-12-22T10:02:47;96.43;;;51.00;;
4468;SDS011;2247;42.666;23.292;2022-12-22T10:05:23;95.60;;;52.77;;
4468;SDS011;2247;42.666;23.292;2022-12-22T10:08:07;91.33;;;47.83;;
4468;SDS011;2247;42.666;23.292;2022-12-22T10:10:37;85.37;;;47.83;;
4468;SDS011;2247;42.666;23.292;2022-12-22T10:13:05;107.13;;;51.03;;
4468;SDS011;2247;42.666;23.292;2022-12-22T10:15:33;94.73;;;50.47;;
4468;SDS011;2247;42.666;23.292;2022-12-22T10:18:09;94.30;;;48.80;;
4468;SDS011;2247;42.666;23.292;2022-12-22T10:20:37;101.53;;;50.37;;
4468;SDS011;2247;42.666;23.292;2022-12-22T10:23:14;98.83;;;53.13;;
4468;SDS011;2247;42.666;23.292;2022-12-22T10:25:57;98.60;;;52.30;;
4468;SDS011;2247;42.666;23.292;2022-12-22T10:28:31;99.20;;;51.57;;
4468;SDS011;2247;42.666;23.292;2022-12-22T10:31:14;89.77;;;50.27;;
4468;SDS011;2247;42.666;23.292;2022-12-22T10:33:48;104.63;;;51.83;;
4468;SDS011;2247;42.666;23.292;2022-12-22T10:36:18;96.67;;;52.60;;
4468;SDS011;2247;42.666;23.292;2022-12-22T10:38:57;101.60;;;53.40;;
4468;SDS011;2247;42.666;23.292;2022-12-22T10:41:27;114.47;;;53.73;;
4468;SDS011;2247;42.666;23.292;2022-12-22T10:43:58;101.87;;;51.27;;
4468;SDS011;2247;42.666;23.292;2022-12-22T10:49:15;108.53;;;55.67;;
4468;SDS011;2247;42.666;23.292;2022-12-22T10:51:46;113.13;;;52.73;;
4468;SDS011;2247;42.666;23.292;2022-12-22T10:54:24;112.07;;;52.03;;
4468;SDS011;2247;42.666;23.292;2022-12-22T10:57:04;109.23;;;55.37;;
4468;SDS011;2247;42.666;23.292;2022-12-22T10:59:46;100.17;;;54.30;;
4468;SDS011;2247;42.666;23.292;2022-12-22T11:05:03;107.93;;;53.67;;
4468;SDS011;2247;42.666;23.292;2022-12-22T11:07:33;108.70;;;55.00;;
4468;SDS011;2247;42.666;23.292;2022-12-22T11:10:10;98.83;;;55.20;;
4468;SDS011;2247;42.666;23.292;2022-12-22T11:12:49;110.30;;;55.47;;
4468;SDS011;2247;42.666;23.292;2022-12-22T11:15:30;113.47;;;56.63;;
4468;SDS011;2247;42.666;23.292;2022-12-22T11:18:07;103.77;;;55.33;;
4468;SDS011;2247;42.666;23.292;2022-12-22T11:20:50;107.50;;;53.57;;
4468;SDS011;2247;42.666;23.292;2022-12-22T11:23:26;94.07;;;52.23;;
4468;SDS011;2247;42.666;23.292;2022-12-22T11:26:05;106.13;;;53.53;;
4468;SDS011;2247;42.666;23.292;2022-12-22T11:28:44;106.60;;;50.20;;
4468;SDS011;2247;42.666;23.292;2022-12-22T11:31:39;95.23;;;50.77;;
4468;SDS011;2247;42.666;23.292;2022-12-22T11:34:34;94.10;;;49.83;;
4468;SDS011;2247;42.666;23.292;2022-12-22T11:37:18;100.10;;;51.80;;
4468;SDS011;2247;42.666;23.292;2022-12-22T11:39:56;94.93;;;50.53;;
4468;SDS011;2247;42.666;23.292;2022-12-22T11:42:35;82.17;;;47.20;;
4468;SDS011;2247;42.666;23.292;2022-12-22T11:45:35;91.63;;;48.70;;
4468;SDS011;2247;42.666;23.292;2022-12-22T11:48:12;97.43;;;48.50;;
4468;SDS011;2247;42.666;23.292;2022-12-22T11:50:55;86.00;;;49.50;;
4468;SDS011;2247;42.666;23.292;2022-12-22T11:53:40;82.77;;;47.77;;
4468;SDS011;2247;42.666;23.292;2022-12-22T11:56:20;108.83;;;49.63;;
4468;SDS011;2247;42.666;23.292;2022-12-22T11:59:04;91.87;;;48.17;;
4468;SDS011;2247;42.666;23.292;2022-12-22T12:01:58;96.80;;;48.63;;
4468;SDS011;2247;42.666;23.292;2022-12-22T12:04:52;98.63;;;49.00;;
4468;SDS011;2247;42.666;23.292;2022-12-22T12:07:35;108.60;;;51.80;;
4468;SDS011;2247;42.666;23.292;2022-12-22T12:10:11;98.30;;;48.83;;
4468;SDS011;2247;42.666;23.292;2022-12-22T12:12:46;92.87;;;49.70;;
4468;SDS011;2247;42.666;23.292;2022-12-22T12:15:28;99.57;;;49.20;;
4468;SDS011;2247;42.666;23.292;2022-12-22T12:18:02;87.20;;;48.57;;
4468;SDS011;2247;42.666;23.292;2022-12-22T12:20:48;97.60;;;51.10;;
4468;SDS011;2247;42.666;23.292;2022-12-22T12:23:34;87.60;;;48.30;;
4468;SDS011;2247;42.666;23.292;2022-12-22T12:26:20;90.93;;;49.97;;
4468;SDS011;2247;42.666;23.292;2022-12-22T12:28:54;98.83;;;52.00;;
4468;SDS011;2247;42.666;23.292;2022-12-22T12:31:34;92.97;;;52.00;;
4468;SDS011;2247;42.666;23.292;2022-12-22T12:34:07;105.63;;;53.53;;
4468;SDS011;2247;42.666;23.292;2022-12-22T12:36:38;92.27;;;51.50;;
4468;SDS011;2247;42.666;23.292;2022-12-22T12:39:11;89.20;;;51.87;;
4468;SDS011;2247;42.666;23.292;2022-12-22T12:41:48;108.57;;;53.23;;
4468;SDS011;2247;42.666;23.292;2022-12-22T12:44:26;102.67;;;53.30;;
4468;SDS011;2247;42.666;23.292;2022-12-22T12:47:06;100.97;;;51.50;;
4468;SDS011;2247;42.666;23.292;2022-12-22T12:49:51;97.77;;;52.90;;
4468;SDS011;2247;42.666;23.292;2022-12-22T12:55:50;105.83;;;54.27;;
4468;SDS011;2247;42.666;23.292;2022-12-22T13:10:36;100.93;;;51.90;;
4468;SDS011;2247;42.666;23.292;2022-12-22T13:13:07;107.73;;;51.83;;
4468;SDS011;2247;42.666;23.292;2022-12-22T13:15:37;98.17;;;54.50;;
4468;SDS011;2247;42.666;23.292;2022-12-22T13:18:08;104.30;;;54.47;;
4468;SDS011;2247;42.666;23.292;2022-12-22T13:20:52;98.77;;;53.03;;
4468;SDS011;2247;42.666;23.292;2022-12-22T13:23:23;95.67;;;50.27;;
4468;SDS011;2247;42.666;23.292;2022-12-22T13:25:55;106.63;;;53.17;;
4468;SDS011;2247;42.666;23.292;2022-12-22T13:28:25;101.77;;;53.97;;
4468;SDS011;2247;42.666;23.292;2022-12-22T13:30:57;104.97;;;56.73;;
4468;SDS011;2247;42.666;23.292;2022-12-22T13:33:28;97.40;;;51.40;;
4468;SDS011;2247;42.666;23.292;2022-12-22T13:35:57;94.77;;;52.80;;
4468;SDS011;2247;42.666;23.292;2022-12-22T13:38:28;99.27;;;50.87;;
4468;SDS011;2247;42.666;23.292;2022-12-22T13:40:56;91.03;;;52.43;;
4468;SDS011;2247;42.666;23.292;2022-12-22T13:43:26;88.60;;;51.13;;
4468;SDS011;2247;42.666;23.292;2022-12-22T13:45:56;101.13;;;53.87;;
4468;SDS011;2247;42.666;23.292;2022-12-22T13:48:28;95.93;;;53.20;;
4468;SDS011;2247;42.666;23.292;2022-12-22T13:51:03;115.10;;;53.67;;
4468;SDS011;2247;42.666;23.292;2022-12-22T13:53:36;107.43;;;54.60;;
4468;SDS011;2247;42.666;23.292;2022-12-22T13:56:06;99.43;;;55.43;;
4468;SDS011;2247;42.666;23.292;2022-12-22T13:58:38;94.73;;;54.20;;
4468;SDS011;2247;42.666;23.292;2022-12-22T14:01:13;92.83;;;53.00;;
4468;SDS011;2247;42.666;23.292;2022-12-22T14:03:46;109.60;;;54.03;;
4468;SDS011;2247;42.666;23.292;2022-12-22T14:06:18;96.50;;;51.63;;
4468;SDS011;2247;42.666;23.292;2022-12-22T14:08:48;96.63;;;52.77;;
4468;SDS011;2247;42.666;23.292;2022-12-22T14:11:15;102.47;;;51.10;;
4468;SDS011;2247;42.666;23.292;2022-12-22T14:13:42;99.77;;;41.77;;
4468;SDS011;2247;42.666;23.292;2022-12-22T14:16:11;82.50;;;40.50;;
4468;SDS011;2247;42.666;23.292;2022-12-22T14:18:39;91.83;;;42.70;;
4468;SDS011;2247;42.666;23.292;2022-12-22T14:21:08;108.70;;;44.57;;
4468;SDS011;2247;42.666;23.292;2022-12-22T14:23:37;82.10;;;45.10;;
4468;SDS011;2247;42.666;23.292;2022-12-22T14:26:09;94.37;;;48.00;;
4468;SDS011;2247;42.666;23.292;2022-12-22T14:28:43;122.90;;;46.43;;
4468;SDS011;2247;42.666;23.292;2022-12-22T14:31:18;87.60;;;45.43;;
4468;SDS011;2247;42.666;23.292;2022-12-22T14:33:49;82.73;;;41.20;;
4468;SDS011;2247;42.666;23.292;2022-12-22T14:36:18;83.90;;;39.93;;
4468;SDS011;2247;42.666;23.292;2022-12-22T14:38:48;97.10;;;46.57;;
4468;SDS011;2247;42.666;23.292;2022-12-22T14:41:20;90.50;;;41.03;;
4468;SDS011;2247;42.666;23.292;2022-12-22T14:44:11;89.87;;;43.43;;
4468;SDS011;2247;42.666;23.292;2022-12-22T14:46:40;88.60;;;44.80;;
4468;SDS011;2247;42.666;23.292;2022-12-22T14:49:12;79.80;;;41.67;;
4468;SDS011;2247;42.666;23.292;2022-12-22T14:51:42;86.47;;;40.10;;
4468;SDS011;2247;42.666;23.292;2022-12-22T14:54:18;90.43;;;42.67;;
4468;SDS011;2247;42.666;23.292;2022-12-22T14:56:50;84.43;;;40.37;;
4468;SDS011;2247;42.666;23.292;2022-12-22T14:59:21;87.83;;;41.60;;
4468;SDS011;2247;42.666;23.292;2022-12-22T15:02:00;77.60;;;39.90;;
4468;SDS011;2247;42.666;23.292;2022-12-22T15:04:29;87.43;;;41.67;;
4468;SDS011;2247;42.666;23.292;2022-12-22T15:07:03;85.20;;;40.63;;
4468;SDS011;2247;42.666;23.292;2022-12-22T15:09:40;78.07;;;39.13;;
4468;SDS011;2247;42.666;23.292;2022-12-22T15:12:10;97.60;;;41.37;;
4468;SDS011;2247;42.666;23.292;2022-12-22T15:14:38;92.63;;;40.83;;
4468;SDS011;2247;42.666;23.292;2022-12-22T15:17:06;98.23;;;41.73;;
4468;SDS011;2247;42.666;23.292;2022-12-22T15:19:46;96.53;;;42.73;;
4468;SDS011;2247;42.666;23.292;2022-12-22T15:22:13;102.63;;;40.97;;
4468;SDS011;2247;42.666;23.292;2022-12-22T15:24:40;101.20;;;44.57;;
4468;SDS011;2247;42.666;23.292;2022-12-22T15:27:07;96.23;;;40.73;;
4468;SDS011;2247;42.666;23.292;2022-12-22T15:29:36;93.57;;;41.97;;
4468;SDS011;2247;42.666;23.292;2022-12-22T15:32:03;114.93;;;39.43;;
4468;SDS011;2247;42.666;23.292;2022-12-22T15:34:34;110.67;;;40.53;;
4468;SDS011;2247;42.666;23.292;2022-12-22T15:37:01;108.57;;;40.70;;
4468;SDS011;2247;42.666;23.292;2022-12-22T15:39:28;107.00;;;42.50;;
4468;SDS011;2247;42.666;23.292;2022-12-22T15:41:55;111.37;;;42.90;;
4468;SDS011;2247;42.666;23.292;2022-12-22T15:44:22;96.47;;;41.90;;